Time;durP1;ratioP1;P1;durP2;ratioP2;P2;SDS_P1;SDS_P2;PMS_P1;PMS_P2;Temp;Humidity;BMP_temperature;BMP_pressure;BME280_temperature;BME280_humidity;BME280_pressure;Samples;Min_cycle;Max_cycle;Signal;HPM_P1;HPM_P2
2023/08/28 00:01:42;;;;;;;4.20;1.63;;;;;;;13.36;100.00;9636.75;6186459;23;20059;-72
2023/08/28 00:04:07;;;;;;;5.40;1.90;;;;;;;13.37;100.00;9292.78;6212573;23;20008;-72
2023/08/28 00:06:33;;;;;;;8.27;2.30;;;;;;;13.32;100.00;9636.00;6213634;23;20338;-72
2023/08/28 00:08:58;;;;;;;6.83;2.30;;;;;;;13.33;100.00;9636.19;6213701;23;20000;-72
2023/08/28 00:11:23;;;;;;;10.03;2.07;;;;;;;13.24;100.00;9634.59;6213899;23;20008;-73
2023/08/28 00:13:49;;;;;;;5.03;1.77;;;;;;;13.18;100.00;9289.31;6213240;23;20005;-72
2023/08/28 00:16:14;;;;;;;8.27;1.70;;;;;;;13.11;100.00;8256.22;6212423;23;19997;-72
2023/08/28 00:18:39;;;;;;;4.73;2.57;;;;;;;13.11;100.00;8256.28;6212403;23;20059;-72
2023/08/28 00:21:05;;;;;;;3.70;1.80;;;;;;;13.13;100.00;7224.94;6212970;23;20035;-72
2023/08/28 00:23:32;;;;;;;4.83;1.57;;;;;;;13.21;100.00;5850.91;6213303;23;20008;-72
2023/08/28 00:25:59;;;;;;;9.23;2.00;;;;;;;13.18;100.00;5506.81;6212735;23;20021;-72
2023/08/28 00:28:24;;;;;;;8.90;2.55;;;;;;;13.17;100.00;4819.44;6213390;23;20009;-72
2023/08/28 00:30:49;;;;;;;4.17;1.73;;;;;;;13.18;100.00;4132.28;6213214;23;20090;-73
2023/08/28 00:33:15;;;;;;;6.77;1.77;;;;;;;13.20;100.00;3788.91;6212782;23;20427;-71
2023/08/28 00:35:42;;;;;;;5.40;1.57;;;;;;;13.23;100.00;3102.13;6214374;23;20008;-72
2023/08/28 00:38:08;;;;;;;3.10;1.70;;;;;;;13.17;100.00;3101.66;6213143;23;20012;-71
2023/08/28 00:40:38;;;;;;;4.88;1.67;;;;;;;13.24;100.00;2071.75;6212824;23;20084;-73
2023/08/28 00:43:03;;;;;;;6.95;1.60;;;;;;;13.30;100.00;698.56;6212411;23;20009;-73
2023/08/28 00:45:30;;;;;;;5.23;1.60;;;;;;;13.25;100.00;1041.69;6212828;23;20010;-72
2023/08/28 00:47:55;;;;;;;4.68;1.65;;;;;;;13.24;100.00;698.34;6186726;23;20398;-73
2023/08/28 00:50:21;;;;;;;4.23;1.80;;;;;;;13.24;100.00;355.03;6212922;23;20005;-72
2023/08/28 00:52:47;;;;;;;11.03;2.90;;;;;;;13.22;100.00;11.72;6213450;23;20079;-72
2023/08/28 00:55:12;;;;;;;4.43;1.40;;;;;;;13.21;100.00;11.69;6213495;23;20080;-72
2023/08/28 00:57:38;;;;;;;10.90;2.20;;;;;;;13.14;100.00;354.66;6213004;23;19997;-72
2023/08/28 01:00:05;;;;;;;3.37;1.37;;;;;;;13.07;100.00;697.63;6212484;23;20078;-73
2023/08/28 01:02:31;;;;;;;5.55;1.38;;;;;;;13.00;100.00;1040.50;6213477;23;20000;-73
2023/08/28 01:04:58;;;;;;;4.23;1.43;;;;;;;12.93;100.00;1040.19;6212881;23;20450;-73
2023/08/28 01:07:30;;;;;;;5.53;1.55;;;;;;;12.92;100.00;1383.28;6186258;23;20016;-73
2023/08/28 01:10:17;;;;;;;7.18;1.48;;;;;;;12.90;100.00;1383.19;6187106;23;20008;-73
2023/08/28 01:13:09;;;;;;;3.90;1.80;;;;;;;12.85;100.00;2069.28;6212398;23;20071;-74
2023/08/28 01:15:36;;;;;;;3.67;1.52;;;;;;;12.86;100.00;1726.16;6186277;23;20004;-73
2023/08/28 01:18:04;;;;;;;6.07;1.77;;;;;;;12.88;100.00;1383.13;6212598;23;20387;-73
2023/08/28 01:20:31;;;;;;;4.10;1.50;;;;;;;12.87;100.00;1383.06;6213006;23;20084;-73
2023/08/28 01:22:57;;;;;;;4.18;1.38;;;;;;;12.81;100.00;1725.88;6213050;23;20016;-73
2023/08/28 01:25:24;;;;;;;7.87;2.07;;;;;;;12.77;100.00;2068.78;6212596;23;20495;-74
2023/08/28 01:27:51;;;;;;;2.75;1.50;;;;;;;12.76;100.00;1382.47;6185368;23;20000;-73
2023/08/28 01:30:17;;;;;;;8.77;1.80;;;;;;;12.73;100.00;1039.25;6212588;23;20024;-73
2023/08/28 01:32:44;;;;;;;4.50;1.87;;;;;;;12.70;100.00;1382.16;6213492;23;20054;-73
2023/08/28 01:35:17;;;;;;;4.45;1.60;;;;;;;12.66;100.00;1725.03;6213075;23;20005;-73
2023/08/28 01:38:00;;;;;;;4.18;1.65;;;;;;;12.69;100.00;1039.06;6213316;23;20062;-73
2023/08/28 01:40:48;;;;;;;1.50;1.35;;;;;;;12.63;100.00;1038.78;6213030;23;20084;-73
2023/08/28 01:43:18;;;;;;;;;;;;;;;12.52;100.00;1724.19;6212892;23;20008;-73
2023/08/28 01:45:44;;;;;;;6.22;1.70;;;;;;;12.53;100.00;1381.25;6186245;23;20352;-73
2023/08/28 01:48:09;;;;;;;5.27;1.83;;;;;;;12.54;100.00;1724.28;6213292;23;20005;-73
2023/08/28 01:50:35;;;;;;;6.33;2.50;;;;;;;12.53;100.00;1381.28;6213085;23;20550;-73
2023/08/28 01:53:00;;;;;;;8.30;1.70;;;;;;;12.49;100.00;2067.00;6212285;23;20008;-74
2023/08/28 01:55:45;;;;;;;5.20;2.70;;;;;;;12.46;100.00;2066.81;6213207;23;20004;-73
2023/08/28 01:58:11;;;;;;;2.00;1.73;;;;;;;12.45;100.00;1723.78;6212511;23;20019;-73
2023/08/28 02:00:37;;;;;;;2.95;1.52;;;;;;;12.48;100.00;1381.00;6212581;23;20007;-73
2023/08/28 02:03:02;;;;;;;8.07;1.83;;;;;;;12.48;100.00;1038.06;6213175;23;20008;-73
2023/08/28 02:05:28;;;;;;;9.90;2.00;;;;;;;12.46;100.00;1380.88;6212340;23;20076;-73
2023/08/28 02:07:53;;;;;;;3.27;1.93;;;;;;;12.43;100.00;1380.75;6185344;23;20032;-73
2023/08/28 02:10:18;;;;;;;4.60;1.80;;;;;;;12.43;100.00;1037.84;6212708;23;20001;-73
2023/08/28 02:12:44;;;;;;;4.43;2.00;;;;;;;12.40;100.00;1037.69;6212503;23;20001;-73
2023/08/28 02:15:09;;;;;;;5.30;2.13;;;;;;;12.39;100.00;1380.53;6211407;23;20000;-73
2023/08/28 02:17:35;;;;;;;6.20;2.37;;;;;;;12.35;100.00;1723.19;6212563;23;20004;-73
2023/08/28 02:20:00;;;;;;;3.40;1.93;;;;;;;12.35;100.00;1037.50;6212053;23;20012;-73
2023/08/28 02:22:26;;;;;;;5.07;2.30;;;;;;;12.36;100.00;694.69;6212137;23;20005;-74
2023/08/28 02:24:51;;;;;;;4.70;2.13;;;;;;;12.30;100.00;1380.06;6189890;23;20024;-73
2023/08/28 02:27:16;;;;;;;7.67;2.10;;;;;;;12.29;100.00;1722.88;6212065;23;20446;-73
2023/08/28 02:29:42;;;;;;;3.47;2.30;;;;;;;12.26;100.00;1722.69;6212327;23;20004;-73
2023/08/28 02:32:07;;;;;;;5.00;2.20;;;;;;;12.22;100.00;1722.47;6209812;23;20116;-73
2023/08/28 02:34:33;;;;;;;10.30;2.30;;;;;;;12.21;100.00;2065.25;6212669;23;20024;-73
2023/08/28 02:36:58;;;;;;;4.13;2.23;;;;;;;12.14;100.00;2064.81;6212521;23;20001;-73
2023/08/28 02:39:23;;;;;;;5.50;2.53;;;;;;;12.16;100.00;2064.94;6212501;23;20051;-73
2023/08/28 02:41:49;;;;;;;5.53;2.13;;;;;;;12.12;100.00;2407.47;6212457;23;20016;-73
2023/08/28 02:44:14;;;;;;;4.13;2.20;;;;;;;12.13;100.00;2750.38;6211807;23;20100;-73
2023/08/28 02:46:39;;;;;;;5.63;2.07;;;;;;;12.13;100.00;2750.41;6212139;23;20423;-73
2023/08/28 02:49:05;;;;;;;3.30;2.17;;;;;;;12.16;100.00;2750.59;6212003;23;20000;-73
2023/08/28 02:51:30;;;;;;;3.93;2.30;;;;;;;12.13;100.00;2750.38;6212042;23;20110;-73
2023/08/28 02:53:55;;;;;;;3.50;2.10;;;;;;;12.09;100.00;2064.47;6212472;23;20304;-74
2023/08/28 02:56:23;;;;;;;2.77;2.50;;;;;;;12.09;100.00;1721.69;6210714;23;20083;-73
2023/08/28 02:58:49;;;;;;;2.90;2.00;;;;;;;12.07;100.00;1378.84;6211326;23;20000;-73
2023/08/28 03:01:15;;;;;;;6.20;2.43;;;;;;;12.08;100.00;350.91;6212124;23;20051;-73
2023/08/28 03:03:40;;;;;;;4.55;2.55;;;;;;;12.05;100.00;350.81;6213813;23;20055;-73
2023/08/28 03:06:06;;;;;;;5.43;2.40;;;;;;;12.01;100.00;8.09;6213675;23;20010;-73
2023/08/28 03:08:31;;;;;;;12.17;2.80;;;;;;;12.01;100.00;-334.44;6214117;23;20005;-73
2023/08/28 03:10:56;;;;;;;3.97;2.70;;;;;;;12.01;100.00;-676.97;6213951;23;20015;-73
2023/08/28 03:13:22;;;;;;;5.47;2.80;;;;;;;11.94;100.00;-334.63;6213564;23;20058;-73
2023/08/28 03:15:47;;;;;;;4.80;2.23;;;;;;;11.94;100.00;7.88;6212271;23;20094;-72
2023/08/28 03:18:12;;;;;;;3.17;2.20;;;;;;;11.91;100.00;350.31;6214497;23;20008;-72
2023/08/28 03:20:38;;;;;;;3.50;2.10;;;;;;;11.93;100.00;7.84;6214461;23;20071;-72
2023/08/28 03:23:03;;;;;;;4.77;2.10;;;;;;;11.91;100.00;-334.69;6213407;23;20005;-72
2023/08/28 03:25:28;;;;;;;4.83;2.47;;;;;;;11.91;100.00;-677.16;6212398;23;20024;-73
2023/08/28 03:27:54;;;;;;;7.73;2.03;;;;;;;11.88;100.00;-677.19;6213975;23;20004;-73
2023/08/28 03:30:20;;;;;;;2.33;2.13;;;;;;;11.88;100.00;-677.22;6210735;23;20423;-72
2023/08/28 03:32:45;;;;;;;5.50;2.23;;;;;;;11.90;100.00;-677.16;6211716;23;20072;-73
2023/08/28 03:35:10;;;;;;;7.43;2.33;;;;;;;11.90;100.00;-677.16;6211022;23;20379;-72
2023/08/28 03:37:36;;;;;;;7.83;3.17;;;;;;;11.90;100.00;-677.16;6214306;23;20000;-73
2023/08/28 03:40:03;;;;;;;2.50;2.17;;;;;;;11.92;100.00;-1361.97;6211641;23;20435;-73
2023/08/28 03:42:29;;;;;;;8.10;2.30;;;;;;;11.96;100.00;-1361.94;6214157;23;20011;-73
2023/08/28 03:44:54;;;;;;;10.20;2.60;;;;;;;11.97;100.00;-2046.69;6213583;23;20071;-73
2023/08/28 03:47:20;;;;;;;5.43;2.60;;;;;;;12.05;100.00;-2389.09;6213418;23;20035;-72
2023/08/28 03:49:45;;;;;;;3.20;2.67;;;;;;;12.13;100.00;-3416.25;6213973;23;20005;-72
2023/08/28 03:52:10;;;;;;;12.40;2.40;;;;;;;12.18;100.00;-4101.00;6211994;23;20082;-72
2023/08/28 03:54:36;;;;;;;5.33;2.57;;;;;;;12.20;100.00;-4443.38;6214017;23;20001;-72
2023/08/28 03:57:01;;;;;;;3.53;2.30;;;;;;;12.27;100.00;-5128.22;6213473;23;20007;-72
2023/08/28 03:59:27;;;;;;;3.80;2.47;;;;;;;12.32;100.00;-5812.94;6213460;23;20084;-73
2023/08/28 04:01:53;;;;;;;6.10;2.80;;;;;;;12.36;100.00;-6155.47;6213090;23;20008;-72
2023/08/28 04:04:19;;;;;;;6.50;2.50;;;;;;;12.42;100.00;-6498.06;6213726;23;20009;-72
2023/08/28 04:06:46;;;;;;;2.92;2.60;;;;;;;12.46;100.00;-6840.63;6213762;23;20016;-73
2023/08/28 04:09:12;;;;;;;7.93;3.28;;;;;;;12.55;100.00;-7183.53;6213213;23;20008;-72
2023/08/28 04:11:38;;;;;;;3.63;3.13;;;;;;;12.59;100.00;-7526.13;6213437;23;20447;-73
2023/08/28 04:14:03;;;;;;;10.37;3.30;;;;;;;12.60;100.00;-7526.25;6213476;23;20012;-73
2023/08/28 04:16:28;;;;;;;9.10;3.00;;;;;;;12.70;100.00;-7869.38;6213486;23;20423;-72
2023/08/28 04:18:54;;;;;;;5.80;2.63;;;;;;;12.73;100.00;-7869.69;6213952;23;20010;-73
2023/08/28 04:21:20;;;;;;;7.37;3.17;;;;;;;12.76;100.00;-7870.03;6213662;23;20008;-72
2023/08/28 04:23:45;;;;;;;3.57;2.67;;;;;;;12.78;100.00;-7870.16;6212580;23;20476;-73
2023/08/28 04:26:11;;;;;;;3.63;3.10;;;;;;;12.84;100.00;-7870.75;6211453;23;20008;-72
2023/08/28 04:28:36;;;;;;;4.20;3.07;;;;;;;12.90;100.00;-8555.97;6211704;23;20031;-73
2023/08/28 04:31:02;;;;;;;5.90;3.30;;;;;;;12.90;100.00;-8898.31;6211314;23;20009;-72
2023/08/28 04:33:27;;;;;;;9.43;3.50;;;;;;;12.95;100.00;-8898.88;6213995;23;20442;-72
2023/08/28 04:35:52;;;;;;;9.43;3.40;;;;;;;13.03;100.00;-9242.13;6213974;23;20020;-73
2023/08/28 04:38:18;;;;;;;7.00;3.90;;;;;;;13.06;100.00;-9927.00;6213717;23;20004;-72
2023/08/28 04:40:43;;;;;;;7.03;3.00;;;;;;;13.10;100.00;-9927.50;6211607;23;20079;-72
2023/08/28 04:43:08;;;;;;;6.23;3.20;;;;;;;13.13;100.00;-9927.97;6210975;23;20457;-72
2023/08/28 04:45:34;;;;;;;6.87;3.60;;;;;;;13.20;100.00;-9928.81;6212163;23;20437;-73
2023/08/28 04:47:59;;;;;;;6.87;3.67;;;;;;;13.25;100.00;-10614.13;6213231;23;20342;-73
2023/08/28 04:50:24;;;;;;;6.03;3.80;;;;;;;13.32;100.00;-10957.53;6211531;23;20415;-72
2023/08/28 04:52:50;;;;;;;7.27;4.33;;;;;;;13.38;100.00;-11643.03;6213396;23;20080;-73
2023/08/28 04:55:15;;;;;;;6.57;4.47;;;;;;;13.45;100.00;-11986.47;6213768;23;20481;-72
2023/08/28 04:57:40;;;;;;;10.40;3.77;;;;;;;13.45;100.00;-11986.47;6213469;23;20434;-72
2023/08/28 05:00:06;;;;;;;5.10;4.03;;;;;;;13.45;100.00;-12328.66;6212386;23;20385;-73
2023/08/28 05:02:32;;;;;;;5.80;3.60;;;;;;;13.46;100.00;-12328.91;6211702;23;20450;-72
2023/08/28 05:04:57;;;;;;;5.77;3.20;;;;;;;13.54;100.00;-12672.47;6212914;23;20005;-73
2023/08/28 05:07:23;;;;;;;5.17;3.90;;;;;;;13.56;100.00;-13015.09;6212275;23;20032;-72
2023/08/28 05:09:48;;;;;;;9.57;3.70;;;;;;;13.57;100.00;-12673.09;6213311;23;20001;-72
2023/08/28 05:12:13;;;;;;;10.90;3.47;;;;;;;13.60;100.00;-12673.53;6210285;23;20062;-73
2023/08/28 05:14:39;;;;;;;6.63;3.30;;;;;;;13.66;100.00;-13016.91;6212502;23;20068;-72
2023/08/28 05:17:06;;;;;;;11.03;3.33;;;;;;;13.64;100.00;-13016.63;6212976;23;19996;-74
2023/08/28 05:19:31;;;;;;;7.78;3.40;;;;;;;13.73;100.00;-13360.50;6211875;23;20012;-72
2023/08/28 05:21:56;;;;;;;9.50;3.90;;;;;;;13.79;100.00;-13361.63;6212483;23;20004;-73
2023/08/28 05:24:22;;;;;;;5.43;3.47;;;;;;;13.76;100.00;-13361.06;6212603;23;20400;-72
2023/08/28 05:26:47;;;;;;;4.73;3.27;;;;;;;13.76;100.00;-13361.06;6212576;23;20126;-73
2023/08/28 05:29:12;;;;;;;8.83;3.53;;;;;;;13.81;100.00;-13362.00;6184782;23;20011;-73
2023/08/28 05:31:38;;;;;;;5.60;3.57;;;;;;;13.82;100.00;-13019.81;6212166;23;20004;-72
2023/08/28 05:34:03;;;;;;;6.13;3.30;;;;;;;13.88;100.00;-13020.97;6184916;23;20067;-73
2023/08/28 05:36:29;;;;;;;7.30;3.40;;;;;;;13.93;100.00;-13021.78;6213020;23;20005;-73
2023/08/28 05:38:54;;;;;;;10.63;4.53;;;;;;;14.01;100.00;-13365.72;6212483;23;20004;-73
2023/08/28 05:41:19;;;;;;;5.10;3.50;;;;;;;14.09;100.00;-13367.22;6186596;23;20100;-73
2023/08/28 05:43:45;;;;;;;4.87;3.27;;;;;;;14.16;100.00;-13368.63;6212493;23;20437;-73
2023/08/28 05:46:10;;;;;;;4.73;3.53;;;;;;;14.22;100.00;-13369.66;6212725;23;20412;-73
2023/08/28 05:48:36;;;;;;;7.00;4.10;;;;;;;14.30;100.00;-13713.75;6212541;23;20001;-74
2023/08/28 05:51:01;;;;;;;7.17;4.33;;;;;;;14.38;100.00;-13715.41;6213363;23;20023;-73
2023/08/28 05:53:29;;;;;;;10.40;4.40;;;;;;;14.45;100.00;-13716.63;6211807;23;20009;-73
2023/08/28 05:55:54;;;;;;;10.68;4.20;;;;;;;14.50;100.00;-13717.59;6212814;23;20335;-73
2023/08/28 05:58:20;;;;;;;8.70;4.40;;;;;;;14.55;100.00;-14061.28;6212436;23;20004;-73
2023/08/28 06:00:46;;;;;;;10.07;4.00;;;;;;;14.62;100.00;-13719.91;6211494;23;20071;-73
2023/08/28 06:03:11;;;;;;;6.15;4.05;;;;;;;14.67;100.00;-13720.97;6212073;23;20004;-73
2023/08/28 06:05:38;;;;;;;10.63;4.00;;;;;;;14.67;100.00;-13035.19;6186782;23;20342;-73
2023/08/28 06:08:03;;;;;;;8.38;4.22;;;;;;;14.68;100.00;-12692.56;6211839;23;20005;-73
2023/08/28 06:10:29;;;;;;;7.57;4.37;;;;;;;14.71;100.00;-12007.09;6212997;23;20000;-74
2023/08/28 06:12:54;;;;;;;7.20;3.87;;;;;;;14.83;100.00;-12009.13;6210674;23;20437;-73
2023/08/28 06:15:20;;;;;;;8.60;3.83;;;;;;;14.96;100.00;-12011.19;6211275;23;20801;-73
2023/08/28 06:17:50;;;;;;;8.30;3.97;;;;;;;15.09;100.00;-11326.84;6211658;23;19997;-73
2023/08/28 06:20:15;;;;;;;6.40;3.58;;;;;;;15.18;100.00;-11328.31;6212803;23;20005;-72
2023/08/28 06:22:42;;;;;;;7.73;4.00;;;;;;;15.28;100.00;-10986.47;6210670;23;20008;-73
2023/08/28 06:25:08;;;;;;;9.18;3.72;;;;;;;15.39;100.00;-10644.53;6211325;23;20021;-73
2023/08/28 06:27:34;;;;;;;6.15;3.90;;;;;;;15.63;100.00;-9960.69;6210965;23;20012;-73
2023/08/28 06:29:59;;;;;;;10.63;4.10;;;;;;;15.89;100.00;-8932.41;6212251;23;20445;-73
2023/08/28 06:32:24;;;;;;;4.87;3.30;;;;;;;16.12;100.00;-7558.63;6209962;23;20011;-73
2023/08/28 06:34:50;;;;;;;7.40;3.80;;;;;;;16.41;100.00;-4461.00;6212127;23;20005;-73
2023/08/28 06:37:15;;;;;;;6.37;3.43;;;;;;;16.76;100.00;-322.53;6211671;23;19997;-74
2023/08/28 06:39:40;;;;;;;7.87;3.03;;;;;;;16.92;100.00;5206.13;6187749;23;20013;-73
2023/08/28 06:42:06;;;;;;;10.97;2.60;;;;;;;17.08;100.00;12824.31;6187825;23;20010;-73
2023/08/28 06:44:31;;;;;;;9.80;2.60;;;;;;;17.22;100.00;22544.78;6214336;23;20005;-72
2023/08/28 06:46:57;;;;;;;3.40;2.00;;;;;;;17.30;100.00;35078.91;6213630;23;20000;-72
2023/08/28 06:49:22;;;;;;;9.43;2.80;;;;;;;17.35;100.00;46255.16;6213174;23;20331;-72
2023/08/28 06:51:47;;;;;;;5.27;2.00;;;;;;;17.54;100.00;54322.94;6213605;23;20013;-72
2023/08/28 06:54:13;;;;;;;4.57;2.03;;;;;;;17.59;100.00;67669.88;6213287;23;20342;-72
2023/08/28 06:56:38;;;;;;;4.33;2.00;;;;;;;17.55;100.00;73647.56;6215194;23;20066;-72
2023/08/28 06:59:04;;;;;;;7.80;2.73;;;;;;;17.51;100.00;73994.78;6212365;23;20032;-73
2023/08/28 07:01:29;;;;;;;3.80;1.87;;;;;;;17.59;100.00;81761.66;6213708;23;20107;-72
2023/08/28 07:03:54;;;;;;;3.33;1.43;;;;;;;17.64;100.00;85300.34;6186113;23;20011;-72
2023/08/28 07:06:20;;;;;;;3.43;2.17;;;;;;;17.88;100.00;89577.03;6214169;23;20455;-71
2023/08/28 07:08:45;;;;;;;5.23;1.60;;;;;;;18.21;100.00;98130.78;6213631;23;20031;-72
2023/08/28 07:11:11;;;;;;;2.67;1.67;;;;;;;19.08;100.00;126434.00;6211984;23;20304;-71
2023/08/28 07:13:37;;;;;;;3.33;1.70;;;;;;;19.85;100.00;156429.16;6214412;23;20395;-72
2023/08/28 07:16:02;;;;;;;4.03;1.73;;;;;;;20.04;100.00;156477.41;6213531;23;20054;-72
2023/08/28 07:18:29;;;;;;;1.60;1.20;;;;;;;19.00;100.00;156207.47;6214635;23;20005;-71
2023/08/28 07:20:54;;;;;;;4.07;1.05;;;;;;;18.60;100.00;156103.28;6212727;23;20532;-72
2023/08/28 07:23:22;;;;;;;2.63;1.40;;;;;;;18.32;100.00;156029.03;6212139;23;20079;-72
2023/08/28 07:25:48;;;;;;;3.17;1.33;;;;;;;18.33;100.00;156031.63;6212684;23;20017;-72
2023/08/28 07:28:13;;;;;;;4.23;1.30;;;;;;;18.26;100.00;156013.34;6214290;23;20027;-71
2023/08/28 07:30:40;;;;;;;2.90;1.37;;;;;;;18.20;100.00;155997.72;6214427;23;20042;-71
2023/08/28 07:33:06;;;;;;;25.60;2.50;;;;;;;18.11;100.00;155975.59;6213924;23;20370;-71
2023/08/28 07:35:35;;;;;;;3.90;1.37;;;;;;;18.17;100.00;151286.44;6213405;23;20009;-72
2023/08/28 07:38:05;;;;;;;7.15;1.42;;;;;;;18.33;100.00;156031.63;6212884;23;20011;-72
2023/08/28 07:40:30;;;;;;;4.70;1.40;;;;;;;18.32;100.00;154842.91;6213996;23;20028;-72
2023/08/28 07:42:56;;;;;;;3.40;1.30;;;;;;;18.32;100.00;155992.47;6213565;23;19997;-72
2023/08/28 07:45:21;;;;;;;1.27;1.00;;;;;;;18.31;100.00;156027.66;6213367;23;20063;-71
2023/08/28 07:47:46;;;;;;;2.93;1.33;;;;;;;18.27;100.00;156015.94;6213896;23;20024;-71
2023/08/28 07:50:12;;;;;;;2.50;1.20;;;;;;;18.31;100.00;156027.66;6213326;23;20012;-72
2023/08/28 07:52:37;;;;;;;3.43;1.30;;;;;;;18.30;100.00;156025.03;6186304;23;20032;-71
2023/08/28 07:55:03;;;;;;;2.63;1.23;;;;;;;18.38;100.00;156045.97;6214398;23;20426;-75
2023/08/28 07:57:28;;;;;;;6.63;1.60;;;;;;;18.42;100.00;156055.06;6213581;23;20004;-74
2023/08/28 07:59:54;;;;;;;6.80;1.00;;;;;;;18.36;100.00;156039.44;6187826;23;20012;-74
2023/08/28 08:02:19;;;;;;;5.53;1.43;;;;;;;18.31;100.00;156026.38;6213962;23;20004;-75
2023/08/28 08:04:44;;;;;;;5.27;1.37;;;;;;;18.38;100.00;156045.97;6187961;23;20079;-74
2023/08/28 08:07:10;;;;;;;3.20;1.20;;;;;;;18.32;100.00;156029.03;6214185;23;20054;-75
2023/08/28 08:09:35;;;;;;;4.93;1.43;;;;;;;18.28;100.00;156019.84;6214194;23;20004;-74
2023/08/28 08:12:02;;;;;;;2.17;1.10;;;;;;;18.34;100.00;156034.22;6213008;23;20008;-73
2023/08/28 08:14:27;;;;;;;3.65;1.27;;;;;;;18.43;100.00;156057.66;6187343;23;20320;-75
2023/08/28 08:16:52;;;;;;;2.53;1.30;;;;;;;18.50;100.00;156077.22;6213335;23;20074;-74
2023/08/28 08:19:18;;;;;;;4.23;1.20;;;;;;;18.58;100.00;156098.03;6214771;23;20099;-74
2023/08/28 08:21:43;;;;;;;4.40;1.57;;;;;;;18.57;100.00;156095.44;6214011;23;20370;-75
2023/08/28 08:24:08;;;;;;;4.00;1.57;;;;;;;18.59;100.00;156099.34;6213672;23;20001;-75
2023/08/28 08:26:34;;;;;;;4.07;1.50;;;;;;;18.63;100.00;156109.78;6213581;23;20036;-74
2023/08/28 08:28:59;;;;;;;5.43;1.50;;;;;;;18.62;100.00;156107.19;6187202;23;20035;-74
2023/08/28 08:31:25;;;;;;;4.07;1.83;;;;;;;18.62;100.00;156108.47;6186850;23;20003;-74
2023/08/28 08:33:50;;;;;;;6.93;1.90;;;;;;;18.47;100.00;156069.38;6214112;23;20007;-74
2023/08/28 08:36:16;;;;;;;2.23;1.30;;;;;;;18.57;100.00;156094.16;6213582;23;20001;-75
2023/08/28 08:38:42;;;;;;;3.42;1.27;;;;;;;18.66;100.00;156118.91;6214292;23;20005;-75
2023/08/28 08:41:08;;;;;;;7.70;1.97;;;;;;;18.81;100.00;156156.66;6187342;23;20108;-75
2023/08/28 08:43:34;;;;;;;4.35;2.00;;;;;;;19.04;100.00;156216.66;6214742;23;20031;-74
2023/08/28 08:46:07;;;;;;;3.80;1.50;;;;;;;19.25;100.00;156271.41;6213246;23;20082;-74
2023/08/28 08:48:36;;;;;;;5.18;2.00;;;;;;;19.49;100.00;156335.31;6211097;23;20461;-75
2023/08/28 08:51:07;;;;;;;5.18;1.92;;;;;;;19.30;100.00;156285.75;6184973;23;20012;-74
2023/08/28 08:53:59;;;;;;;7.28;1.95;;;;;;;19.53;100.00;156344.44;6184255;23;20114;-73
2023/08/28 08:56:31;;;;;;;2.45;1.60;;;;;;;19.92;100.00;156446.13;6184749;23;20050;-74
2023/08/28 08:58:57;;;;;;;3.03;1.23;;;;;;;20.10;100.00;156494.41;6211799;23;20427;-74
2023/08/28 09:01:24;;;;;;;;;;;;;;;20.33;100.00;156553.13;6209600;23;20004;-75
2023/08/28 09:03:49;;;;;;;2.65;1.20;;;;;;;20.25;100.00;156533.56;6210995;23;19903;-74
2023/08/28 09:06:15;;;;;;;2.50;1.33;;;;;;;20.32;100.00;156550.53;6184477;23;20035;-71
2023/08/28 09:08:42;;;;;;;3.92;1.30;;;;;;;20.38;100.00;156567.44;6211993;23;20008;-71
2023/08/28 09:11:08;;;;;;;5.32;1.25;;;;;;;20.26;100.00;156536.16;6212384;23;20008;-73
2023/08/28 09:13:41;;;;;;;2.58;1.40;;;;;;;20.68;100.00;156644.41;6211265;23;20005;-72
2023/08/28 09:16:07;;;;;;;4.18;1.50;;;;;;;20.65;100.00;156637.91;6184690;23;20000;-72
2023/08/28 09:18:32;;;;;;;3.90;1.43;;;;;;;20.80;100.00;156675.78;6213514;23;20028;-72
2023/08/28 09:21:09;;;;;;;2.63;1.67;;;;;;;20.86;100.00;156692.69;6212624;23;20004;-71
2023/08/28 09:23:40;;;;;;;2.03;1.00;;;;;;;21.06;100.00;156743.66;6212978;23;20038;-73
2023/08/28 09:26:05;;;;;;;2.08;1.20;;;;;;;21.30;100.00;156806.31;6211809;23;20498;-72
2023/08/28 09:28:31;;;;;;;3.43;1.00;;;;;;;21.12;100.00;156759.34;6186642;23;20244;-71
2023/08/28 09:30:56;;;;;;;3.33;1.20;;;;;;;21.25;100.00;156794.59;6212312;23;20370;-72
2023/08/28 09:33:21;;;;;;;2.30;1.00;;;;;;;21.36;100.00;156823.31;6213885;23;20001;-71
2023/08/28 09:35:47;;;;;;;2.23;1.50;;;;;;;21.53;100.00;156866.38;6212651;23;20012;-72
2023/08/28 09:38:12;;;;;;;2.33;1.10;;;;;;;21.75;100.00;156923.84;6213171;23;20090;-72
2023/08/28 09:40:41;;;;;;;3.93;0.80;;;;;;;21.77;100.00;156929.13;6212692;23;20012;-72
2023/08/28 09:43:16;;;;;;;1.48;1.00;;;;;;;21.87;100.00;156955.25;6212711;23;20050;-69
2023/08/28 09:45:43;;;;;;;1.95;0.90;;;;;;;22.02;100.00;156995.69;6212485;23;20099;-69
2023/08/28 09:48:09;;;;;;;1.98;0.95;;;;;;;22.27;100.00;157059.69;6186389;23;20001;-69
2023/08/28 09:50:38;;;;;;;2.05;1.20;;;;;;;21.97;100.00;156982.63;6212621;23;20342;-71
2023/08/28 09:53:13;;;;;;;2.08;1.10;;;;;;;22.11;100.00;157019.22;6213021;23;20374;-70
2023/08/28 09:55:44;;;;;;;2.22;1.40;;;;;;;21.89;100.00;156960.44;6212748;23;20027;-72
2023/08/28 09:58:11;;;;;;;2.67;1.23;;;;;;;21.57;100.00;156878.16;6186318;23;20039;-70
2023/08/28 10:00:40;;;;;;;1.92;1.00;;;;;;;21.74;100.00;156922.59;6212475;23;20004;-71
2023/08/28 10:03:10;;;;;;;5.25;1.17;;;;;;;21.70;100.00;156912.13;6212648;23;20012;-69
2023/08/28 10:05:37;;;;;;;2.55;1.15;;;;;;;21.83;100.00;156946.06;6212592;23;20478;-69
2023/08/28 10:08:07;;;;;;;1.85;1.00;;;;;;;21.73;100.00;156918.66;6212442;23;20116;-71
2023/08/28 10:10:33;;;;;;;3.78;1.00;;;;;;;21.48;100.00;156854.63;6186325;23;20434;-71
2023/08/28 10:13:03;;;;;;;4.60;1.10;;;;;;;21.47;100.00;156850.69;6212501;23;20075;-71
2023/08/28 10:15:31;;;;;;;2.88;1.65;;;;;;;21.67;100.00;156904.22;6186796;23;20079;-72
2023/08/28 10:18:15;;;;;;;3.13;1.00;;;;;;;21.79;100.00;156935.66;6212600;23;20427;-72
2023/08/28 10:20:43;;;;;;;2.33;1.02;;;;;;;21.92;100.00;156968.31;6185848;23;20010;-72
2023/08/28 10:23:09;;;;;;;1.38;0.75;;;;;;;21.82;100.00;156942.19;6212071;23;20377;-72
2023/08/28 10:25:36;;;;;;;1.83;0.93;;;;;;;21.77;100.00;156929.13;6212748;23;20024;-71
2023/08/28 10:28:01;;;;;;;;;;;;;;;21.51;100.00;156861.16;6213157;23;20053;-72
2023/08/28 10:30:28;;;;;;;2.80;0.98;;;;;;;21.18;100.00;156775.00;6185988;23;19956;-72
2023/08/28 10:32:54;;;;;;;;;;;;;;;21.05;100.00;156741.03;6212840;23;20001;-72
2023/08/28 10:35:21;;;;;;;1.55;0.93;;;;;;;20.88;100.00;156697.97;6211979;23;19908;-71
2023/08/28 10:37:47;;;;;;;2.30;1.13;;;;;;;20.62;100.00;156628.78;6212267;23;20054;-72
2023/08/28 10:40:13;;;;;;;1.98;1.00;;;;;;;20.47;100.00;156589.63;6212093;23;20036;-71
2023/08/28 10:42:41;;;;;;;3.72;1.23;;;;;;;20.36;100.00;156562.25;6213210;23;20008;-72
2023/08/28 10:45:07;;;;;;;1.05;1.00;;;;;;;20.39;100.00;156570.06;6184913;23;20449;-72
2023/08/28 10:47:32;;;;;;;3.92;1.30;;;;;;;20.37;100.00;156563.53;6212656;23;20008;-72
2023/08/28 10:49:58;;;;;;;5.23;1.87;;;;;;;20.31;100.00;156549.19;6212286;23;20054;-72
2023/08/28 10:52:23;;;;;;;3.50;1.20;;;;;;;20.32;100.00;156550.53;6212301;23;20249;-72
2023/08/28 10:54:50;;;;;;;3.03;1.60;;;;;;;20.46;100.00;156588.34;6212668;23;20334;-71
2023/08/28 10:57:23;;;;;;;5.43;1.52;;;;;;;20.67;100.00;156643.16;6212023;23;19997;-71
2023/08/28 10:59:49;;;;;;;3.88;1.55;;;;;;;20.95;100.00;156714.94;6213023;23;20084;-71
2023/08/28 11:02:15;;;;;;;2.27;1.43;;;;;;;21.27;100.00;156799.78;6185695;23;20411;-71
2023/08/28 11:04:40;;;;;;;1.77;1.38;;;;;;;21.34;100.00;156818.06;6212150;23;20001;-72
2023/08/28 11:07:21;;;;;;;2.17;1.65;;;;;;;21.61;100.00;156887.28;6184985;23;20080;-71
2023/08/28 11:09:47;;;;;;;1.65;1.30;;;;;;;21.68;100.00;156905.59;6209343;23;20454;-72
2023/08/28 11:12:13;;;;;;;1.52;1.40;;;;;;;21.96;100.00;156980.03;6210198;23;20019;-73
2023/08/28 11:14:55;;;;;;;11.20;2.25;;;;;;;22.27;100.00;157061.03;6210998;23;20004;-73
2023/08/28 11:17:22;;;;;;;5.05;1.48;;;;;;;22.71;100.00;157174.72;6210411;23;20011;-71
2023/08/28 11:19:53;;;;;;;2.25;1.20;;;;;;;23.05;100.00;157263.63;6211370;23;20008;-71
2023/08/28 11:22:39;;;;;;;1.23;1.13;;;;;;;23.04;100.00;157262.28;6209748;23;20067;-72